Seneca, SC (29672)

7:31 AM EDT on September 03, 2015 (GMT -0400)
KE4OGG-Seneca | | Change Station
CLOSE
Current Station
Personal Weather Station
Location: Seneca, SC
Elevation: 958 ft
Nearby Weather Stations

Elev 958 ft 34.68 °N, 82.95 °W | Updated 42 seconds ago

Partly Cloudy
Partly Cloudy
72.9 °F
Feels Like 72.9 °F
N
0.0
Wind Variable Wind from East
Gusts 0.0 mph

Today
High -- | Low -- °F
--% Chance of Precip.
Yesterday
High -- | Low -- °F
Precip. -- in
7:06 AM 7:55 PM
Waning Gibbous, 71% visible
Pressure 29.98 in
Visibility 10.0 miles
Clouds Clear
Dew Point 71 °F
Humidity 93%
Rainfall 0.00 in
Snow Depth Not available.
UV 0 out of 12
Pollen 8.80 out of 12
Air Quality Not available.
Flu Activity Not available.
METAR KCEU 031054Z AUTO 00000KT 10SM CLR 24/22 A3001 RMK AO2 SLP151 T02390217
Pressure 29.98 in
Visibility 10.0 miles
Clouds Clear
Dew Point 71 °F
Humidity 93%
Rainfall 0.00 in
Snow Depth Not available.
UV 0 out of 12
Pollen 8.80 out of 12
Air Quality Not available.
Flu Activity Not available.
METAR KCEU 031054Z AUTO 00000KT 10SM CLR 24/22 A3001 RMK AO2 SLP151 T02390217

10-Day Weather Forecast

×

Almanac

Astronomy

Sep. 03, 2015 Rise Set
Actual Time
Civil Twilight
Nautical Twilight
Astronomical Twilight
Moon
Length of Visible Light
Length of Day
Tomorrow will be .
, % of the Moon is Illuminated

Today's Extremes

State Highs State Lows

Community

WunderPhotos

Upload Photos

1,851,933 photos uploaded!

WunderBlogs® & News

Nearby

Air Quality

  Air Quality AQ Index Pollutant
Not available.

Snow Depth

Station Depth Elevation

Earthquake Activity

City Distance Mag. Time & Date
Minimum magnitude displayed is 2.5.

Coastal Water Temperatures

Place Temperature

Stations

Nearby Weather Stations

Station Location Temp. Windchill Dew Point Humidity Wind Precip. Elev Updated Type